createdAt,value
2022-09-18T00:01:40.241Z,13.60
2022-09-18T00:04:14.636Z,13.60
2022-09-18T00:06:44.947Z,13.60
2022-09-18T00:09:16.750Z,13.60
2022-09-18T00:11:47.579Z,13.60
2022-09-18T00:14:18.649Z,13.60
2022-09-18T00:16:46.874Z,13.60
2022-09-18T00:19:16.468Z,13.60
2022-09-18T00:21:46.007Z,13.50
2022-09-18T00:24:17.697Z,13.50
2022-09-18T00:26:46.728Z,13.50
2022-09-18T00:29:16.027Z,13.50
2022-09-18T00:31:44.269Z,13.40
2022-09-18T00:34:15.098Z,13.40
2022-09-18T00:36:43.906Z,13.40
2022-09-18T00:39:13.247Z,13.30
2022-09-18T00:41:44.200Z,13.30
2022-09-18T00:44:32.986Z,13.30
2022-09-18T00:47:23.684Z,13.30
2022-09-18T00:49:58.253Z,13.20
2022-09-18T00:52:29.147Z,13.20
2022-09-18T00:55:01.803Z,13.20
2022-09-18T00:57:34.836Z,13.20
2022-09-18T01:00:07.605Z,13.20
2022-09-18T01:02:35.888Z,13.10
2022-09-18T01:05:04.111Z,13.10
2022-09-18T01:07:45.174Z,13.10
2022-09-18T01:10:27.511Z,13.10
2022-09-18T01:13:00.602Z,13.10
2022-09-18T01:15:37.981Z,13.10
2022-09-18T01:18:16.109Z,13.10
2022-09-18T01:21:01.200Z,13.20
2022-09-18T01:24:02.916Z,13.20
2022-09-18T01:26:48.075Z,13.20
2022-09-18T01:29:24.931Z,13.20
2022-09-18T01:31:58.692Z,13.20
2022-09-18T01:34:32.337Z,13.20
2022-09-18T01:37:05.706Z,13.30
2022-09-18T01:39:36.358Z,13.30
2022-09-18T01:42:06.123Z,13.30
2022-09-18T01:44:39.055Z,13.40
2022-09-18T01:47:11.603Z,13.40
2022-09-18T01:49:44.256Z,13.40
2022-09-18T01:52:17.718Z,13.40
2022-09-18T01:54:49.054Z,13.40
2022-09-18T01:57:22.552Z,13.40
2022-09-18T01:59:58.804Z,13.40
2022-09-18T02:02:32.431Z,13.40
2022-09-18T02:05:02.986Z,13.50
2022-09-18T02:07:39.619Z,13.50
2022-09-18T02:10:08.357Z,13.50
2022-09-18T02:12:40.081Z,13.50
2022-09-18T02:15:15.681Z,13.50
2022-09-18T02:17:48.223Z,13.50
2022-09-18T02:20:20.792Z,13.50
2022-09-18T02:22:52.029Z,13.50
2022-09-18T02:25:25.467Z,13.50
2022-09-18T02:27:55.867Z,13.50
2022-09-18T02:30:26.744Z,13.50
2022-09-18T02:32:55.879Z,13.50
2022-09-18T02:35:26.516Z,13.50
2022-09-18T02:38:02.404Z,13.50
2022-09-18T02:40:41.871Z,13.50
2022-09-18T02:43:23.786Z,13.50
2022-09-18T02:46:02.262Z,13.40
2022-09-18T02:48:53.541Z,13.40
2022-09-18T02:51:30.427Z,13.40
2022-09-18T02:54:04.073Z,13.40
2022-09-18T02:56:39.616Z,13.40
2022-09-18T02:59:11.890Z,13.40
2022-09-18T03:01:44.260Z,13.40
2022-09-18T03:04:14.440Z,13.40
2022-09-18T03:06:42.955Z,13.40
2022-09-18T03:09:11.063Z,13.40
2022-09-18T03:11:39.167Z,13.40
2022-09-18T03:14:07.407Z,13.40
2022-09-18T03:16:35.797Z,13.40
2022-09-18T03:19:05.715Z,13.40
2022-09-18T03:21:34.059Z,13.40
2022-09-18T03:24:02.635Z,13.40
2022-09-18T03:26:30.875Z,13.40
2022-09-18T03:28:59.212Z,13.40
2022-09-18T03:31:27.423Z,13.40
2022-09-18T03:33:55.765Z,13.40
2022-09-18T03:36:25.210Z,13.40
2022-09-18T03:38:53.312Z,13.40
2022-09-18T03:41:22.582Z,13.40
2022-09-18T03:43:51.144Z,13.40
2022-09-18T03:46:23.534Z,13.40
2022-09-18T03:48:52.147Z,13.50
2022-09-18T03:51:21.412Z,13.50
2022-09-18T03:53:51.986Z,13.50
2022-09-18T03:56:20.308Z,13.50
2022-09-18T03:58:48.470Z,13.60
2022-09-18T04:01:16.671Z,13.60
2022-09-18T04:03:45.392Z,13.50
2022-09-18T04:06:13.747Z,13.50
2022-09-18T04:08:41.977Z,13.50
2022-09-18T04:11:11.713Z,13.50
2022-09-18T04:13:39.802Z,13.50
2022-09-18T04:16:08.290Z,13.50
2022-09-18T04:18:36.700Z,13.50
2022-09-18T04:21:05.016Z,13.50
2022-09-18T04:23:33.169Z,13.50
2022-09-18T04:26:08.855Z,13.50
2022-09-18T04:28:38.740Z,13.50
2022-09-18T04:31:07.195Z,13.50
2022-09-18T04:33:35.351Z,13.50
2022-09-18T04:36:03.731Z,13.50
2022-09-18T04:38:31.910Z,13.50
2022-09-18T04:41:01.134Z,13.50
2022-09-18T04:43:29.702Z,13.50
2022-09-18T04:45:59.168Z,13.50
2022-09-18T04:48:27.242Z,13.50
2022-09-18T04:50:55.416Z,13.50
2022-09-18T04:53:23.813Z,13.50
2022-09-18T04:55:51.918Z,13.50
2022-09-18T04:58:20.996Z,13.50
2022-09-18T05:00:50.708Z,13.50
2022-09-18T05:03:22.627Z,13.50
2022-09-18T05:05:51.257Z,13.50
2022-09-18T05:08:19.355Z,13.50
2022-09-18T05:10:47.462Z,13.50
2022-09-18T05:13:15.637Z,13.60
2022-09-18T05:15:43.844Z,13.50
2022-09-18T05:18:13.714Z,13.50
2022-09-18T05:20:43.265Z,13.50
2022-09-18T05:23:11.411Z,13.60
2022-09-18T05:25:39.574Z,13.60
2022-09-18T05:28:07.742Z,13.60
2022-09-18T05:30:35.830Z,13.60
2022-09-18T05:33:05.626Z,13.60
2022-09-18T05:35:36.061Z,13.60
2022-09-18T05:38:05.774Z,13.60
2022-09-18T05:40:35.869Z,13.60
2022-09-18T05:43:04.436Z,13.60
2022-09-18T05:45:33.072Z,13.70
2022-09-18T05:48:03.001Z,13.60
2022-09-18T05:50:32.172Z,13.70
2022-09-18T05:53:01.383Z,13.70
2022-09-18T05:55:32.133Z,13.70
2022-09-18T05:58:01.549Z,13.70
2022-09-18T06:00:31.638Z,13.70
2022-09-18T06:03:01.468Z,13.70
2022-09-18T06:05:31.545Z,13.70
2022-09-18T06:08:00.442Z,13.70
2022-09-18T06:10:30.970Z,13.70
2022-09-18T06:13:03.088Z,13.70
2022-09-18T06:15:33.957Z,13.70
2022-09-18T06:18:02.079Z,13.80
2022-09-18T06:20:30.707Z,13.80
2022-09-18T06:23:01.579Z,13.80
2022-09-18T06:25:31.889Z,13.90
2022-09-18T06:28:01.367Z,13.90
2022-09-18T06:30:31.520Z,13.90
2022-09-18T06:33:08.166Z,14.00
2022-09-18T06:35:38.326Z,14.00
2022-09-18T06:38:08.031Z,14.00
2022-09-18T06:40:37.863Z,14.10
2022-09-18T06:43:05.987Z,14.10
2022-09-18T06:45:34.125Z,14.10
2022-09-18T06:48:03.147Z,14.10
2022-09-18T06:50:31.746Z,14.20
2022-09-18T06:53:03.442Z,14.20
2022-09-18T06:55:32.205Z,14.30
2022-09-18T06:58:01.984Z,14.30
2022-09-18T07:00:30.138Z,14.30
2022-09-18T07:02:59.162Z,14.30
2022-09-18T07:05:28.384Z,14.40
2022-09-18T07:07:56.807Z,14.40
2022-09-18T07:10:25.365Z,14.40
2022-09-18T07:12:57.754Z,14.40
2022-09-18T07:15:28.218Z,14.40
2022-09-18T07:17:57.791Z,14.50
2022-09-18T07:20:26.871Z,14.50
2022-09-18T07:22:55.803Z,14.50
2022-09-18T07:25:24.583Z,14.60
2022-09-18T07:27:53.111Z,14.60
2022-09-18T07:30:21.854Z,14.70
2022-09-18T07:32:51.362Z,14.70
2022-09-18T07:35:19.490Z,14.80
2022-09-18T07:37:47.586Z,14.80
2022-09-18T07:40:16.329Z,14.80
2022-09-18T07:42:44.585Z,14.90
2022-09-18T07:45:13.108Z,14.90
2022-09-18T07:47:41.301Z,14.90
2022-09-18T07:50:15.894Z,15.00
2022-09-18T07:52:50.880Z,15.00
2022-09-18T07:55:20.783Z,15.00
2022-09-18T07:57:50.342Z,15.10
2022-09-18T08:00:18.535Z,15.10
2022-09-18T08:02:46.815Z,15.10
2022-09-18T08:05:16.676Z,15.20
2022-09-18T08:07:45.387Z,15.20
2022-09-18T08:10:13.515Z,15.20
2022-09-18T08:12:41.790Z,15.20
2022-09-18T08:15:10.662Z,15.20
2022-09-18T08:17:46.443Z,15.30
2022-09-18T08:20:17.040Z,15.30
2022-09-18T08:22:45.135Z,15.40
2022-09-18T08:25:13.521Z,15.40
2022-09-18T08:27:43.940Z,15.50
2022-09-18T08:30:15.233Z,15.50
2022-09-18T08:32:43.974Z,15.60
2022-09-18T08:35:12.808Z,15.60
2022-09-18T08:37:49.543Z,15.70
2022-09-18T08:40:21.331Z,15.80
2022-09-18T08:43:00.675Z,15.90
2022-09-18T08:45:42.039Z,15.90
2022-09-18T08:48:16.833Z,16.00
2022-09-18T08:50:52.948Z,16.10
2022-09-18T08:53:29.369Z,16.20
2022-09-18T08:56:02.107Z,16.30
2022-09-18T08:58:35.861Z,16.30
2022-09-18T09:01:09.453Z,16.30
2022-09-18T09:03:52.025Z,16.40
2022-09-18T09:06:32.031Z,16.40
2022-09-18T09:09:25.335Z,16.50
2022-09-18T09:12:04.113Z,16.60
2022-09-18T09:14:57.285Z,16.70
2022-09-18T09:17:40.639Z,16.70
2022-09-18T09:20:24.484Z,16.80
2022-09-18T09:23:04.404Z,16.90
2022-09-18T09:25:40.489Z,16.90
2022-09-18T09:28:16.803Z,16.90
2022-09-18T09:30:49.417Z,16.90
2022-09-18T09:33:23.244Z,16.80
2022-09-18T09:35:55.688Z,16.80
2022-09-18T09:38:38.675Z,16.80
2022-09-18T09:41:19.635Z,16.70
2022-09-18T09:43:56.308Z,16.70
2022-09-18T09:46:41.321Z,16.70
2022-09-18T09:49:14.873Z,16.60
2022-09-18T09:51:55.940Z,16.60
2022-09-18T09:54:24.299Z,16.50
2022-09-18T09:57:01.361Z,16.40
2022-09-18T09:59:38.229Z,16.30
2022-09-18T10:02:25.316Z,16.30
2022-09-18T10:04:57.299Z,16.20
2022-09-18T10:07:32.076Z,16.20
2022-09-18T10:10:06.984Z,16.10
2022-09-18T10:12:47.735Z,16.00
2022-09-18T10:15:20.671Z,15.90
2022-09-18T10:17:52.295Z,15.80
2022-09-18T10:20:27.363Z,15.70
2022-09-18T10:22:58.297Z,15.60
2022-09-18T10:25:31.876Z,15.50
2022-09-18T10:28:01.434Z,15.40
2022-09-18T10:30:29.599Z,15.40
2022-09-18T10:32:59.804Z,15.30
2022-09-18T10:35:42.312Z,15.40
2022-09-18T10:38:30.041Z,15.40
2022-09-18T10:41:11.133Z,15.40
2022-09-18T10:43:55.573Z,15.50
2022-09-18T10:46:30.412Z,15.60
2022-09-18T10:49:19.885Z,15.70
2022-09-18T10:51:48.106Z,15.80
2022-09-18T10:54:19.008Z,15.80
2022-09-18T10:56:47.471Z,15.90
2022-09-18T10:59:34.805Z,16.00
2022-09-18T11:02:06.126Z,16.00
2022-09-18T11:04:35.116Z,16.10
2022-09-18T11:07:07.565Z,16.10
2022-09-18T11:09:39.580Z,16.10
2022-09-18T11:12:16.641Z,16.20
2022-09-18T11:14:50.540Z,16.20
2022-09-18T11:17:30.654Z,16.20
2022-09-18T11:20:00.805Z,16.30
2022-09-18T11:22:40.270Z,16.30
2022-09-18T11:25:19.469Z,16.30
2022-09-18T11:27:49.571Z,16.30
2022-09-18T11:30:23.906Z,16.30
2022-09-18T11:32:55.337Z,16.30
2022-09-18T11:35:24.139Z,16.40
2022-09-18T11:37:56.325Z,16.40
2022-09-18T11:40:27.681Z,16.50
2022-09-18T11:42:58.834Z,16.50
2022-09-18T11:45:41.454Z,16.60
2022-09-18T11:48:20.631Z,16.60
2022-09-18T11:50:51.866Z,16.60
2022-09-18T11:53:24.679Z,16.70
2022-09-18T11:56:03.063Z,16.70
2022-09-18T11:58:39.440Z,16.70
2022-09-18T12:01:19.365Z,16.70
2022-09-18T12:03:54.844Z,16.70
2022-09-18T12:06:33.881Z,16.70
2022-09-18T12:09:08.225Z,16.60
2022-09-18T12:11:42.272Z,16.60
2022-09-18T12:14:17.703Z,16.50
2022-09-18T12:16:51.832Z,16.50
2022-09-18T12:19:24.412Z,16.40
2022-09-18T12:21:59.117Z,16.30
2022-09-18T12:24:27.332Z,16.30
2022-09-18T12:27:09.382Z,16.20
2022-09-18T12:30:12.245Z,16.20
2022-09-18T12:33:05.764Z,16.10
2022-09-18T12:35:48.467Z,16.10
2022-09-18T12:38:31.128Z,16.00
2022-09-18T12:41:20.448Z,16.00
2022-09-18T12:44:13.735Z,15.90
2022-09-18T12:46:53.441Z,15.80
2022-09-18T12:49:51.603Z,15.70
2022-09-18T12:52:31.490Z,15.70
2022-09-18T12:55:14.959Z,15.60
2022-09-18T12:57:51.887Z,15.50
2022-09-18T13:00:22.174Z,15.50
2022-09-18T13:02:59.457Z,15.40
2022-09-18T13:05:32.802Z,15.40
2022-09-18T13:08:08.038Z,15.40
2022-09-18T13:10:40.083Z,15.40
2022-09-18T13:13:15.277Z,15.40
2022-09-18T13:15:50.195Z,15.30
2022-09-18T13:18:39.080Z,15.30
2022-09-18T13:21:18.409Z,15.30
2022-09-18T13:23:48.641Z,15.30
2022-09-18T13:26:17.426Z,15.30
2022-09-18T13:28:46.129Z,15.20
2022-09-18T13:31:23.126Z,15.20
2022-09-18T13:33:54.084Z,15.10
2022-09-18T13:36:31.801Z,15.10
2022-09-18T13:39:03.449Z,15.10
2022-09-18T13:41:44.161Z,15.00
2022-09-18T13:44:20.623Z,15.00
2022-09-18T13:46:50.629Z,15.00
2022-09-18T13:49:22.890Z,15.00
2022-09-18T13:51:52.452Z,15.00
2022-09-18T13:54:28.162Z,15.00
2022-09-18T13:57:19.561Z,15.00
2022-09-18T13:59:55.681Z,15.00
2022-09-18T14:02:26.963Z,14.90
2022-09-18T14:05:28.692Z,14.90
2022-09-18T14:08:34.827Z,14.70
2022-09-18T14:11:16.376Z,14.70
2022-09-18T14:13:51.383Z,14.60
2022-09-18T14:19:33.486Z,14.40
2022-09-18T14:22:02.870Z,14.40
2022-09-18T14:24:55.177Z,14.30
2022-09-18T14:27:42.981Z,14.30
2022-09-18T14:30:20.859Z,14.20
2022-09-18T14:33:04.733Z,14.10
2022-09-18T14:35:42.001Z,14.10
2022-09-18T14:38:26.498Z,14.00
2022-09-18T14:41:00.508Z,14.00
2022-09-18T14:43:28.725Z,14.00
2022-09-18T14:45:57.133Z,14.00
2022-09-18T14:48:30.209Z,14.00
2022-09-18T14:51:04.367Z,14.00
2022-09-18T14:53:33.898Z,14.00
2022-09-18T14:56:08.416Z,14.00
2022-09-18T14:58:39.012Z,14.00
2022-09-18T15:01:12.213Z,14.00
2022-09-18T15:03:43.380Z,14.00
2022-09-18T15:06:21.478Z,14.00
2022-09-18T15:08:52.751Z,14.00
2022-09-18T15:11:24.671Z,14.00
2022-09-18T15:13:54.884Z,14.00
2022-09-18T15:16:27.187Z,14.00
2022-09-18T15:18:56.091Z,14.10
2022-09-18T15:21:32.316Z,14.10
2022-09-18T15:24:03.346Z,14.10
2022-09-18T15:26:37.343Z,14.20
2022-09-18T15:29:08.542Z,14.20
2022-09-18T15:31:36.794Z,14.20
2022-09-18T15:34:11.934Z,14.20
2022-09-18T15:36:41.145Z,14.20
2022-09-18T15:39:26.683Z,14.20
2022-09-18T15:41:56.459Z,14.20
2022-09-18T15:45:10.989Z,14.20
2022-09-18T15:47:40.489Z,14.20
2022-09-18T15:50:41.291Z,14.20
2022-09-18T15:53:29.627Z,14.20
2022-09-18T15:56:04.147Z,14.20
2022-09-18T15:58:43.844Z,14.20
2022-09-18T16:01:28.492Z,14.20
2022-09-18T16:04:04.489Z,14.10
2022-09-18T16:06:42.499Z,14.10
2022-09-18T16:09:24.469Z,14.10
2022-09-18T16:11:52.945Z,14.20
2022-09-18T16:14:46.529Z,14.20
2022-09-18T16:17:40.616Z,14.10
2022-09-18T16:20:31.706Z,14.10
2022-09-18T16:23:21.361Z,14.00
2022-09-18T16:26:04.070Z,14.00
2022-09-18T16:28:34.797Z,14.00
2022-09-18T16:31:04.805Z,13.90
2022-09-18T16:33:34.729Z,13.90
2022-09-18T16:36:07.272Z,13.80
2022-09-18T16:38:36.406Z,13.80
2022-09-18T16:41:04.687Z,13.70
2022-09-18T16:43:32.806Z,13.70
2022-09-18T16:46:01.041Z,13.70
2022-09-18T16:48:30.966Z,13.60
2022-09-18T16:50:59.041Z,13.60
2022-09-18T16:53:27.234Z,13.60
2022-09-18T16:55:58.696Z,13.50
2022-09-18T16:58:28.396Z,13.50
2022-09-18T17:00:56.945Z,13.50
2022-09-18T17:03:27.129Z,13.40
2022-09-18T17:05:56.731Z,13.40
2022-09-18T17:08:24.893Z,13.40
2022-09-18T17:10:53.023Z,13.40
2022-09-18T17:13:21.202Z,13.40
2022-09-18T17:15:49.533Z,13.30
2022-09-18T17:18:17.950Z,13.30
2022-09-18T17:20:47.319Z,13.30
2022-09-18T17:23:16.826Z,13.30
2022-09-18T17:25:45.120Z,13.30
2022-09-18T17:28:13.185Z,13.30
2022-09-18T17:30:42.344Z,13.20
2022-09-18T17:33:10.704Z,13.20
2022-09-18T17:35:38.891Z,13.20
2022-09-18T17:38:07.038Z,13.20
2022-09-18T17:40:36.552Z,13.20
2022-09-18T17:43:05.557Z,13.20
2022-09-18T17:45:34.251Z,13.20
2022-09-18T17:48:02.693Z,13.20
2022-09-18T17:50:30.948Z,13.20
2022-09-18T17:52:59.195Z,13.20
2022-09-18T17:55:28.440Z,13.20
2022-09-18T17:57:57.916Z,13.20
2022-09-18T18:00:27.182Z,13.20
2022-09-18T18:02:55.698Z,13.20
2022-09-18T18:05:23.873Z,13.20
2022-09-18T18:07:57.809Z,13.10
2022-09-18T18:10:26.522Z,13.10
2022-09-18T18:12:55.572Z,13.20
2022-09-18T18:15:25.048Z,13.10
2022-09-18T18:17:53.468Z,13.10
2022-09-18T18:20:21.673Z,13.10
2022-09-18T18:22:49.867Z,13.20
2022-09-18T18:25:18.462Z,13.20
2022-09-18T18:27:46.539Z,13.20
2022-09-18T18:30:16.281Z,13.20
2022-09-18T18:32:45.847Z,13.20
2022-09-18T18:35:16.227Z,13.20
2022-09-18T18:37:44.367Z,13.20
2022-09-18T18:40:13.395Z,13.20
2022-09-18T18:42:41.531Z,13.20
2022-09-18T18:45:10.742Z,13.20
2022-09-18T18:47:39.223Z,13.20
2022-09-18T18:50:14.168Z,13.10
2022-09-18T18:52:43.502Z,13.10
2022-09-18T18:55:12.122Z,13.10
2022-09-18T18:57:40.498Z,13.10
2022-09-18T19:00:10.147Z,13.00
2022-09-18T19:02:38.301Z,13.00
2022-09-18T19:05:12.524Z,13.00
2022-09-18T19:07:40.610Z,12.90
2022-09-18T19:10:09.683Z,12.80
2022-09-18T19:12:38.090Z,12.80
2022-09-18T19:15:06.976Z,12.80
2022-09-18T19:17:35.330Z,12.70
2022-09-18T19:20:03.630Z,12.70
2022-09-18T19:22:33.115Z,12.60
2022-09-18T19:25:01.343Z,12.60
2022-09-18T19:27:29.454Z,12.60
2022-09-18T19:29:57.759Z,12.50
2022-09-18T19:32:25.860Z,12.50
2022-09-18T19:34:54.033Z,12.50
2022-09-18T19:37:22.377Z,12.50
2022-09-18T19:39:51.946Z,12.50
2022-09-18T19:42:20.351Z,12.50
2022-09-18T19:44:51.219Z,12.40
2022-09-18T19:47:22.066Z,12.50
2022-09-18T19:49:51.012Z,12.40
2022-09-18T19:52:21.826Z,12.40
2022-09-18T19:54:53.123Z,12.40
2022-09-18T19:57:21.971Z,12.40
2022-09-18T19:59:56.378Z,12.50
2022-09-18T20:02:25.425Z,12.50
2022-09-18T20:04:53.732Z,12.50
2022-09-18T20:07:22.021Z,12.50
2022-09-18T20:09:50.452Z,12.50
2022-09-18T20:12:20.260Z,12.50
2022-09-18T20:14:48.326Z,12.50
2022-09-18T20:17:16.592Z,12.40
2022-09-18T20:19:46.560Z,12.40
2022-09-18T20:22:14.765Z,12.40
2022-09-18T20:24:42.913Z,12.40
2022-09-18T20:27:12.664Z,12.30
2022-09-18T20:29:42.353Z,12.30
2022-09-18T20:32:10.590Z,12.30
2022-09-18T20:34:38.708Z,12.30
2022-09-18T20:37:11.211Z,12.30
2022-09-18T20:39:39.755Z,12.30
2022-09-18T20:42:08.058Z,12.30
2022-09-18T20:44:36.386Z,12.30
2022-09-18T20:47:06.927Z,12.20
2022-09-18T20:49:35.206Z,12.20
2022-09-18T20:52:03.658Z,12.10
2022-09-18T20:54:32.242Z,12.10
2022-09-18T20:57:00.514Z,12.00
2022-09-18T20:59:31.245Z,11.90
2022-09-18T21:01:59.401Z,11.90
2022-09-18T21:04:29.245Z,11.80
2022-09-18T21:06:57.400Z,11.80
2022-09-18T21:09:28.531Z,11.70
2022-09-18T21:11:57.351Z,11.60
2022-09-18T21:14:27.378Z,11.50
2022-09-18T21:16:56.060Z,11.50
2022-09-18T21:19:26.290Z,11.50
2022-09-18T21:21:56.622Z,11.40
2022-09-18T21:24:25.362Z,11.40
2022-09-18T21:26:53.492Z,11.40
2022-09-18T21:29:23.258Z,11.40
2022-09-18T21:31:52.776Z,11.30
2022-09-18T21:34:24.606Z,11.30
2022-09-18T21:36:55.116Z,11.30
2022-09-18T21:39:25.852Z,11.30
2022-09-18T21:41:54.038Z,11.20
2022-09-18T21:44:27.164Z,11.20
2022-09-18T21:46:56.380Z,11.20
2022-09-18T21:49:24.800Z,11.20
2022-09-18T21:51:55.680Z,11.20
2022-09-18T21:54:25.583Z,11.20
2022-09-18T21:56:54.070Z,11.20
2022-09-18T21:59:23.411Z,11.20
2022-09-18T22:01:54.798Z,11.20
2022-09-18T22:04:26.264Z,11.20
2022-09-18T22:06:55.794Z,11.20
2022-09-18T22:09:28.598Z,11.20
2022-09-18T22:11:58.719Z,11.20
2022-09-18T22:14:29.839Z,11.30
2022-09-18T22:16:58.241Z,11.30
2022-09-18T22:19:26.728Z,11.30
2022-09-18T22:21:54.922Z,11.30
2022-09-18T22:24:27.007Z,11.40
2022-09-18T22:26:58.509Z,11.40
2022-09-18T22:29:29.398Z,11.40
2022-09-18T22:31:59.310Z,11.40
2022-09-18T22:34:29.942Z,11.40
2022-09-18T22:36:59.659Z,11.40
2022-09-18T22:39:29.803Z,11.30
2022-09-18T22:41:57.924Z,11.30
2022-09-18T22:44:26.068Z,11.30
2022-09-18T22:46:54.375Z,11.30
2022-09-18T22:49:24.360Z,11.20
2022-09-18T22:51:52.849Z,11.20
2022-09-18T22:54:24.833Z,11.20
2022-09-18T22:56:56.523Z,11.20
2022-09-18T22:59:26.507Z,11.10
2022-09-18T23:01:57.093Z,11.10
2022-09-18T23:04:29.026Z,11.10
2022-09-18T23:06:57.658Z,11.10
2022-09-18T23:09:26.214Z,11.00
2022-09-18T23:11:56.271Z,11.00
2022-09-18T23:14:27.655Z,11.00
2022-09-18T23:16:56.849Z,10.90
2022-09-18T23:19:27.074Z,10.90
2022-09-18T23:21:56.312Z,10.90
2022-09-18T23:24:24.933Z,10.90
2022-09-18T23:26:56.891Z,10.90
2022-09-18T23:29:26.127Z,10.90
2022-09-18T23:31:57.054Z,10.90
2022-09-18T23:34:28.978Z,11.00
2022-09-18T23:36:58.219Z,11.00
2022-09-18T23:39:28.663Z,11.00
2022-09-18T23:42:01.420Z,11.00
2022-09-18T23:44:31.117Z,11.10
2022-09-18T23:47:00.078Z,11.10
2022-09-18T23:49:29.086Z,11.10
2022-09-18T23:51:59.374Z,11.20
2022-09-18T23:54:29.462Z,11.20
2022-09-18T23:56:59.273Z,11.20
2022-09-18T23:59:27.827Z,11.30
